AirNav   Pilot Hours Calculator
 
 955 users online  

4Y8 Para Field Airport
Yale, Michigan, USA

GOING TO YALE?


FAA INFORMATION EFFECTIVE 11 AUGUST 2022

Location

FAA Identifier: 4Y8
Lat/Long: 43-12-08.0800N 082-45-14.0000W
43-12.134667N 082-45.233333W
43.2022444,-82.7538889
(estimated)
Elevation: 800 ft. / 244 m (estimated)
Variation: 06W (1985)
From city: 5 miles NNE of YALE, MI
Time zone: UTC -4 (UTC -5 during Standard Time)
Zip code: 48097

Airport Operations

Airport use: Open to the public
Activation date: 03/1973
Control tower: no
ARTCC: CLEVELAND CENTER
FSS: LANSING FLIGHT SERVICE STATION
NOTAMs facility: LAN (NOTAM-D service available)
Attendance: UNATNDD
FOR FLD CONDS CALL AMGR.
Wind indicator: yes
Segmented circle: no

Airport Communications

CTAF: 122.9

Airport Services

Runway Information

Runway 6/24

Dimensions: 2500 x 65 ft. / 762 x 20 m
Surface: turf, in fair condition
Runway edge markings: RWY & DTHR MKD WITH CONES.
Operational restrictions: CLSD OCT-MAR & WHEN SNOW COVD.
RUNWAY 6  RUNWAY 24
Latitude: 43-12.031333N43-12.238000N
Longitude: 082-45.476000W082-44.989333W
Traffic pattern: leftleft
Runway heading: 066 magnetic, 060 true246 magnetic, 240 true
Displaced threshold: 476 ft.200 ft.
Obstructions: 24 ft. trees, 54 ft. right of centerline, 1:1 slope to clear
APCH RATIO 19:1 TO DTHR OVR 24 FT TREE, 476 FT DIST, 54 FT R.
37 ft. trees, 67 ft. left of centerline, 1:1 slope to clear
APCH RATIO 5:1 TO DTHR OVR 37 FT TREES, 200 FT DIST, 67 FT L.

Airport Ownership and Management from official FAA records

Ownership: Privately-owned
Owner: JEFFERY P KOHLITZ
39748 CANNON DR
HARRISON TOWNSHIP, MI 48045-1550
Phone 313-320-2503
Manager: JEFFERY P KOHLITZ
39748 CANNON DR
HARRISON TOWNSHIP, MI 48045-1550
Phone 313-320-2503

Airport Operational Statistics

Aircraft based on the field: 1
Single engine airplanes: 1
    
Aircraft operations: 50/year *
100% transient general aviation
* for 12-month period ending 31 December 2021

Additional Remarks

OPPOSITE RWY END NOT VSB FM THR DUE TO ROLLING TRRN, RWY SLPS DOWNWARD AT BOTH ENDS.
FOR CD CTC CLEVELAND ARTCC AT 440-774-0224/0490.
DEER & LRG BIRDS ON & INVOF ARPT.

Instrument Procedures

There are no published instrument procedures at 4Y8.

Some nearby airports with instrument procedures:

77G - Marlette Township Airport (16 nm NW)
KPHN - St Clair County International Airport (20 nm SE)
D95 - Dupont/Lapeer Airport (24 nm W)
D98 - Romeo State Airport (26 nm S)
57D - Ray Community Airport (29 nm S)
 
Loc | Ops | Rwys | IFR | FBO | Links
Com | Nav | Svcs | Stats | Notes
Area around 4Y8 (Para Field Airport)
 
Road maps at: MapQuest Bing Google
 
Aerial photo
No photo
 
Sectional chart

 
Airport distance calculator
Flying to Para Field Airport? Find the distance to fly.

From to 4Y8

Sunrise and sunset
Times for 13-Aug-2022
 Local
(UTC-4)
 Zulu
(UTC)
Morning civil twilight06:0410:04
Sunrise06:3510:35
Sunset20:3600:36
Evening civil twilight21:0701:07

Current date and time
Zulu (UTC)  14-Aug-2022 01:13:23
Local (UTC-4)  13-Aug-2022 21:13:23
 
METAR
KPHN 
20nm SE 
140055Z AUTO 00000KT 10SM OVC090 18/14 A3009 RMK AO2
CYZR 
23nm SE 
140000Z AUTO 36003KT 9SM OVC100 20/16 A3009 RMK SLP191 DENSITY ALT 1200FT
KD95 
24nm W 
140055Z AUTO 00000KT 10SM OVC085 17/12 A3011 RMK AO2 T01730115
KCFS 
34nm NW 
140055Z AUTO 00000KT 10SM BKN075 16/14 A3010 RMK AO2 T01590140
KMTC 
35nm S 
140056Z 00000KT 10SM FEW035 OVC080 20/15 A3006 RMK AO2A SLP182 T01950151
KBAX 
36nm N 
140055Z AUTO 01006KT 10SM OVC070 18/13 A3010 RMK AO2 T01750125
TAF
CYZR 
23nm SE 
131940Z 1320/1402 22008KT P6SM SCT080 OVC110 TEMPO 1320/1402 P6SM -SHRA BKN060 OVC080 RMK FCST BASED ON AUTO OBS. NXT FCST BY 140800Z
NOTAMs
Click for the latest NOTAMs
NOTAMs are issued by the DoD/FAA and will open in a separate window not controlled by AirNav.

 

 
 

Would you like to see your business listed on this page?

 If your business provides an interesting product or service to pilots, flight crews, aircraft, or users of the Para Field Airport, you should consider listing it here.  To start the listing process, click on the button below
 
Add a business
 

Other Pages about Para Field Airport

Page from the Michigan Airport Directory (PDF)
 
Update a link
 
Copyright © AirNav, LLC. All rights reserved. Privacy Policy  Contact